Time,TemperatureF,DewpointF,PressureIn,WindDirection,WindDirectionDegrees,WindSpeedMPH,WindSpeedGustMPH,Humidity,HourlyPrecipIn,Conditions,Clouds,dailyrainin,SolarRadiationWatts/m^2,SoftwareType,DateUTC
2013-02-18 00:11:00,47.0,45.0,-100.00,West,274,1.0,5.0,93,0.00,,,0.00,0.000000,,2013-02-18 08:11:00,
2013-02-18 00:21:00,47.0,45.0,-100.00,West,274,1.0,5.0,93,0.00,,,0.00,0.000000,,2013-02-18 08:21:00,
2013-02-18 00:32:00,47.0,45.0,-100.00,West,274,1.0,5.0,93,0.00,,,0.00,0.000000,,2013-02-18 08:32:00,
2013-02-18 00:41:00,47.0,45.0,-100.00,West,274,1.0,5.0,93,0.00,,,0.00,0.000000,,2013-02-18 08:41:00,
2013-02-18 01:11:00,47.0,45.0,-100.00,ESE,109,3.0,6.0,91,0.00,,,0.00,0.000000,,2013-02-18 09:11:00,
2013-02-18 01:22:00,47.0,45.0,-100.00,ESE,109,3.0,6.0,91,0.00,,,0.00,0.000000,,2013-02-18 09:22:00,
2013-02-18 01:31:00,47.0,45.0,-100.00,ESE,109,3.0,6.0,91,0.00,,,0.00,0.000000,,2013-02-18 09:31:00,
2013-02-18 01:41:00,47.0,45.0,-100.00,ESE,109,3.0,6.0,91,0.00,,,0.00,0.000000,,2013-02-18 09:41:00,
2013-02-18 02:11:00,47.0,45.0,-100.00,East,101,7.0,9.0,92,0.00,,,0.00,0.000000,,2013-02-18 10:11:00,
2013-02-18 02:21:00,47.0,45.0,-100.00,East,101,7.0,9.0,92,0.00,,,0.00,0.000000,,2013-02-18 10:21:00,
2013-02-18 02:31:00,47.0,45.0,-100.00,East,101,7.0,9.0,92,0.00,,,0.00,0.000000,,2013-02-18 10:31:00,
2013-02-18 02:41:00,47.0,45.0,-100.00,East,101,7.0,9.0,92,0.00,,,0.00,0.000000,,2013-02-18 10:41:00,
2013-02-18 03:11:00,45.0,43.0,-100.00,ESE,106,13.0,15.0,93,0.00,,,0.00,0.000000,,2013-02-18 11:11:00,
2013-02-18 03:21:00,45.0,43.0,-100.00,ESE,106,13.0,15.0,93,0.00,,,0.00,0.000000,,2013-02-18 11:21:00,
2013-02-18 03:32:00,45.0,43.0,-100.00,ESE,106,13.0,15.0,93,0.00,,,0.00,0.000000,,2013-02-18 11:32:00,
2013-02-18 03:42:00,45.0,43.0,-100.00,ESE,106,13.0,15.0,93,0.00,,,0.00,0.000000,,2013-02-18 11:42:00,
2013-02-18 04:11:00,45.0,43.0,-100.00,East,93,9.0,17.0,94,0.00,,,0.00,0.000000,,2013-02-18 12:11:00,
2013-02-18 04:22:00,45.0,43.0,-100.00,East,93,9.0,17.0,94,0.00,,,0.00,0.000000,,2013-02-18 12:22:00,
2013-02-18 04:32:00,45.0,43.0,-100.00,East,93,9.0,17.0,94,0.00,,,0.00,0.000000,,2013-02-18 12:32:00,
2013-02-18 04:42:00,45.0,43.0,-100.00,East,93,9.0,17.0,94,0.00,,,0.00,0.000000,,2013-02-18 12:42:00,
2013-02-18 05:12:00,45.0,43.0,-100.00,SE,141,0.0,8.0,94,0.00,,,0.00,0.000000,,2013-02-18 13:12:00,
2013-02-18 05:22:00,45.0,43.0,-100.00,SE,141,0.0,8.0,94,0.00,,,0.00,0.000000,,2013-02-18 13:22:00,
2013-02-18 05:32:00,45.0,43.0,-100.00,SE,141,0.0,8.0,94,0.00,,,0.00,0.000000,,2013-02-18 13:32:00,
2013-02-18 05:42:00,45.0,43.0,-100.00,SE,141,0.0,8.0,94,0.00,,,0.00,0.000000,,2013-02-18 13:42:00,
2013-02-18 06:11:00,45.0,43.0,-100.00,East,97,2.0,6.0,93,0.00,,,0.00,0.000000,,2013-02-18 14:11:00,
2013-02-18 06:22:00,45.0,43.0,-100.00,East,97,2.0,6.0,93,0.00,,,0.00,0.000000,,2013-02-18 14:22:00,
2013-02-18 06:32:00,45.0,43.0,-100.00,East,97,2.0,6.0,93,0.00,,,0.00,0.000000,,2013-02-18 14:32:00,
2013-02-18 06:41:00,45.0,43.0,-100.00,East,97,2.0,6.0,93,0.00,,,0.00,0.000000,,2013-02-18 14:41:00,
2013-02-18 07:11:00,44.0,42.0,-100.00,East,84,7.0,11.0,92,0.00,,,0.00,1.000000,,2013-02-18 15:11:00,
2013-02-18 07:22:00,44.0,42.0,-100.00,East,84,7.0,11.0,92,0.00,,,0.00,1.000000,,2013-02-18 15:22:00,
2013-02-18 07:31:00,44.0,42.0,-100.00,East,84,7.0,11.0,92,0.00,,,0.00,1.000000,,2013-02-18 15:31:00,
2013-02-18 07:42:00,44.0,42.0,-100.00,East,84,7.0,11.0,92,0.00,,,0.00,1.000000,,2013-02-18 15:42:00,
2013-02-18 08:12:00,43.0,41.0,-100.00,East,84,9.0,11.0,94,0.00,,,0.00,25.000000,,2013-02-18 16:12:00,
2013-02-18 08:22:00,43.0,41.0,-100.00,East,84,9.0,11.0,94,0.00,,,0.00,25.000000,,2013-02-18 16:22:00,
2013-02-18 08:32:00,43.0,41.0,-100.00,East,84,9.0,11.0,94,0.00,,,0.00,25.000000,,2013-02-18 16:32:00,
2013-02-18 08:42:00,43.0,41.0,-100.00,East,84,9.0,11.0,94,0.00,,,0.00,25.000000,,2013-02-18 16:42:00,
2013-02-18 09:12:00,44.0,41.0,-100.00,ENE,68,12.0,15.0,90,0.00,,,0.00,123.000000,,2013-02-18 17:12:00,
2013-02-18 09:22:00,44.0,41.0,-100.00,ENE,68,12.0,15.0,90,0.00,,,0.00,123.000000,,2013-02-18 17:22:00,
2013-02-18 09:32:00,44.0,41.0,-100.00,ENE,68,12.0,15.0,90,0.00,,,0.00,123.000000,,2013-02-18 17:32:00,
2013-02-18 09:42:00,44.0,41.0,-100.00,ENE,68,12.0,15.0,90,0.00,,,0.00,123.000000,,2013-02-18 17:42:00,
2013-02-18 10:11:00,47.0,42.0,-100.00,ENE,61,8.0,16.0,82,0.00,,,0.00,367.000000,,2013-02-18 18:11:00,
2013-02-18 10:22:00,47.0,42.0,-100.00,ENE,61,8.0,16.0,82,0.00,,,0.00,367.000000,,2013-02-18 18:22:00,
2013-02-18 10:32:00,47.0,42.0,-100.00,ENE,61,8.0,16.0,82,0.00,,,0.00,367.000000,,2013-02-18 18:32:00,
2013-02-18 10:42:00,47.0,42.0,-100.00,ENE,61,8.0,16.0,82,0.00,,,0.00,367.000000,,2013-02-18 18:42:00,
2013-02-18 11:12:00,53.0,43.0,-100.00,West,277,2.0,11.0,68,0.00,,,0.00,595.000000,,2013-02-18 19:12:00,
2013-02-18 11:22:00,53.0,43.0,-100.00,West,277,2.0,11.0,68,0.00,,,0.00,595.000000,,2013-02-18 19:22:00,
2013-02-18 11:32:00,53.0,43.0,-100.00,West,277,2.0,11.0,68,0.00,,,0.00,595.000000,,2013-02-18 19:32:00,
2013-02-18 11:42:00,53.0,43.0,-100.00,West,277,2.0,11.0,68,0.00,,,0.00,595.000000,,2013-02-18 19:42:00,
2013-02-18 12:12:00,57.0,44.0,-100.00,NW,318,3.0,11.0,61,0.00,,,0.00,682.000000,,2013-02-18 20:12:00,
2013-02-18 12:22:00,57.0,44.0,-100.00,NW,318,3.0,11.0,61,0.00,,,0.00,682.000000,,2013-02-18 20:22:00,
2013-02-18 12:32:00,57.0,44.0,-100.00,NW,318,3.0,11.0,61,0.00,,,0.00,682.000000,,2013-02-18 20:32:00,
2013-02-18 12:41:00,57.0,44.0,-100.00,NW,318,3.0,11.0,61,0.00,,,0.00,682.000000,,2013-02-18 20:41:00,
2013-02-18 13:12:00,60.0,43.0,-100.00,West,276,8.0,15.0,53,0.00,,,0.00,708.000000,,2013-02-18 21:12:00,
2013-02-18 13:21:00,60.0,43.0,-100.00,West,276,8.0,15.0,53,0.00,,,0.00,708.000000,,2013-02-18 21:21:00,
2013-02-18 13:32:00,60.0,43.0,-100.00,West,276,8.0,15.0,53,0.00,,,0.00,708.000000,,2013-02-18 21:32:00,
2013-02-18 13:42:00,60.0,43.0,-100.00,West,276,8.0,15.0,53,0.00,,,0.00,708.000000,,2013-02-18 21:42:00,
2013-02-18 14:12:00,59.0,42.0,-100.00,West,274,12.0,18.0,54,0.00,,,0.00,662.000000,,2013-02-18 22:12:00,
2013-02-18 14:22:00,59.0,42.0,-100.00,West,274,12.0,18.0,54,0.00,,,0.00,662.000000,,2013-02-18 22:22:00,
2013-02-18 14:32:00,59.0,42.0,-100.00,West,274,12.0,18.0,54,0.00,,,0.00,662.000000,,2013-02-18 22:32:00,
2013-02-18 14:42:00,59.0,42.0,-100.00,West,274,12.0,18.0,54,0.00,,,0.00,662.000000,,2013-02-18 22:42:00,
2013-02-18 15:12:00,57.0,45.0,-100.00,WNW,287,15.0,22.0,64,0.00,,,0.00,401.000000,,2013-02-18 23:12:00,
2013-02-18 15:22:00,57.0,45.0,-100.00,WNW,287,15.0,22.0,64,0.00,,,0.00,401.000000,,2013-02-18 23:22:00,
2013-02-18 15:32:00,57.0,45.0,-100.00,WNW,287,15.0,22.0,64,0.00,,,0.00,401.000000,,2013-02-18 23:32:00,
2013-02-18 15:42:00,57.0,45.0,-100.00,WNW,287,15.0,22.0,64,0.00,,,0.00,401.000000,,2013-02-18 23:42:00,
2013-02-18 16:12:00,55.0,43.0,-100.00,West,270,14.0,21.0,65,0.00,,,0.00,329.000000,,2013-02-19 00:12:00,
2013-02-18 16:22:00,55.0,43.0,-100.00,West,270,14.0,21.0,65,0.00,,,0.00,329.000000,,2013-02-19 00:22:00,
2013-02-18 16:33:00,55.0,43.0,-100.00,West,270,14.0,21.0,65,0.00,,,0.00,329.000000,,2013-02-19 00:33:00,
2013-02-18 16:42:00,55.0,43.0,-100.00,West,270,14.0,21.0,65,0.00,,,0.00,329.000000,,2013-02-19 00:42:00,
2013-02-18 17:13:00,53.0,43.0,-100.00,West,274,11.0,16.0,69,0.00,,,0.00,209.000000,,2013-02-19 01:13:00,
2013-02-18 17:23:00,53.0,43.0,-100.00,West,274,11.0,16.0,69,0.00,,,0.00,209.000000,,2013-02-19 01:23:00,
2013-02-18 17:33:00,53.0,43.0,-100.00,West,274,11.0,16.0,69,0.00,,,0.00,209.000000,,2013-02-19 01:33:00,
2013-02-18 17:42:00,53.0,43.0,-100.00,West,274,11.0,16.0,69,0.00,,,0.00,209.000000,,2013-02-19 01:42:00,
2013-02-18 18:13:00,49.0,44.0,-100.00,SW,222,13.0,17.0,82,0.00,,,0.00,49.000000,,2013-02-19 02:13:00,
2013-02-18 18:22:00,49.0,44.0,-100.00,SW,222,13.0,17.0,82,0.00,,,0.00,49.000000,,2013-02-19 02:22:00,
2013-02-18 18:33:00,49.0,44.0,-100.00,SW,222,13.0,17.0,82,0.00,,,0.00,49.000000,,2013-02-19 02:33:00,
2013-02-18 18:42:00,49.0,44.0,-100.00,SW,222,13.0,17.0,82,0.00,,,0.00,49.000000,,2013-02-19 02:42:00,
2013-02-18 19:13:00,47.0,43.0,-100.00,SW,230,11.0,17.0,87,0.00,,,0.00,1.000000,,2013-02-19 03:13:00,
2013-02-18 19:22:00,47.0,43.0,-100.00,SW,230,11.0,17.0,87,0.00,,,0.00,1.000000,,2013-02-19 03:22:00,
2013-02-18 19:33:00,47.0,43.0,-100.00,SW,230,11.0,17.0,87,0.00,,,0.00,1.000000,,2013-02-19 03:33:00,
2013-02-18 19:42:00,47.0,43.0,-100.00,SW,230,11.0,17.0,87,0.00,,,0.00,1.000000,,2013-02-19 03:42:00,
2013-02-18 20:13:00,47.0,44.0,-100.00,WSW,256,6.0,13.0,88,0.00,,,0.00,1.000000,,2013-02-19 04:13:00,
2013-02-18 20:22:00,47.0,44.0,-100.00,WSW,256,6.0,13.0,88,0.00,,,0.00,1.000000,,2013-02-19 04:22:00,
2013-02-18 20:32:00,47.0,44.0,-100.00,WSW,256,6.0,13.0,88,0.00,,,0.00,1.000000,,2013-02-19 04:32:00,
2013-02-18 20:42:00,47.0,44.0,-100.00,WSW,256,6.0,13.0,88,0.00,,,0.00,1.000000,,2013-02-19 04:42:00,
2013-02-18 21:12:00,46.0,43.0,-100.00,WSW,239,8.0,11.0,88,0.00,,,0.00,0.000000,,2013-02-19 05:12:00,
2013-02-18 21:22:00,46.0,43.0,-100.00,WSW,239,8.0,11.0,88,0.00,,,0.00,0.000000,,2013-02-19 05:22:00,
2013-02-18 21:32:00,46.0,43.0,-100.00,WSW,239,8.0,11.0,88,0.00,,,0.00,0.000000,,2013-02-19 05:32:00,
2013-02-18 21:42:00,46.0,43.0,-100.00,WSW,239,8.0,11.0,88,0.00,,,0.00,0.000000,,2013-02-19 05:42:00,
2013-02-18 22:11:00,46.0,44.0,-100.00,SW,234,4.0,9.0,91,0.00,,,0.00,0.000000,,2013-02-19 06:11:00,
2013-02-18 22:21:00,46.0,44.0,-100.00,SW,234,4.0,9.0,91,0.00,,,0.00,0.000000,,2013-02-19 06:21:00,
2013-02-18 22:32:00,46.0,44.0,-100.00,SW,234,4.0,9.0,91,0.00,,,0.00,0.000000,,2013-02-19 06:32:00,
2013-02-18 22:41:00,46.0,44.0,-100.00,SW,234,4.0,9.0,91,0.00,,,0.00,0.000000,,2013-02-19 06:41:00,
2013-02-18 23:11:00,46.0,42.0,-100.00,West,263,3.0,9.0,86,0.00,,,0.00,1.000000,,2013-02-19 07:11:00,
2013-02-18 23:21:00,46.0,42.0,-100.00,West,263,3.0,9.0,86,0.00,,,0.00,1.000000,,2013-02-19 07:21:00,
2013-02-18 23:32:00,46.0,42.0,-100.00,West,263,3.0,9.0,86,0.00,,,0.00,1.000000,,2013-02-19 07:32:00,
2013-02-18 23:42:00,46.0,42.0,-100.00,West,263,3.0,9.0,86,0.00,,,0.00,1.000000,,2013-02-19 07:42:00,